Time;durP1;ratioP1;P1;durP2;ratioP2;P2;SDS_P1;SDS_P2;PMS_P1;PMS_P2;Temp;Humidity;BMP_temperature;BMP_pressure;BME280_temperature;BME280_humidity;BME280_pressure;Samples;Min_cycle;Max_cycle;Signal;HPM_P1;HPM_P2
2023/09/04 00:00:55;;;;;;;;;;;;;;;18.99;65.65;100876.91;1084464;54;20009;-81
2023/09/04 00:01:57;;;;;;;;;;;;;;;19.02;65.46;100881.09;1084422;47;19954;-81
2023/09/04 00:03:00;;;;;;;;;;;;;;;19.04;65.67;100879.06;1084873;54;19946;-80
2023/09/04 00:04:03;;;;;;;;;;;;;;;19.06;65.58;100874.31;1084957;39;20853;-81
2023/09/04 00:05:07;;;;;;;;;;;;;;;19.09;65.34;100870.41;1084382;54;19971;-81
2023/09/04 00:06:07;;;;;;;;;;;;;;;19.09;65.33;100873.94;1084472;47;19947;-80
2023/09/04 00:07:13;;;;;;;;;;;;;;;19.10;65.40;100875.63;1084589;46;19954;-81
2023/09/04 00:08:14;;;;;;;;;;;;;;;19.10;65.25;100870.19;1083603;54;19970;-81
2023/09/04 00:09:17;;;;;;;;;;;;;;;19.10;65.74;100875.63;1083971;54;19975;-81
2023/09/04 00:10:18;;;;;;;;;;;;;;;19.04;65.56;100868.22;1083731;54;19947;-81
2023/09/04 00:11:21;;;;;;;;;;;;;;;19.06;65.59;100882.44;1083837;47;19971;-80
2023/09/04 00:12:22;;;;;;;;;;;;;;;18.99;65.92;100873.31;1084030;47;19957;-80
2023/09/04 00:13:25;;;;;;;;;;;;;;;18.99;66.11;100878.75;1084614;54;20006;-80
2023/09/04 00:14:26;;;;;;;;;;;;;;;19.02;66.14;100870.28;1084837;47;19947;-81
2023/09/04 00:15:29;;;;;;;;;;;;;;;18.91;66.22;100870.66;1083785;47;19970;-79
2023/09/04 00:16:29;;;;;;;;;;;;;;;18.92;65.97;100880.47;1084175;54;19951;-81
2023/09/04 00:17:33;;;;;;;;;;;;;;;18.94;66.08;100882.00;1084870;54;20521;-81
2023/09/04 00:18:34;;;;;;;;;;;;;;;18.94;65.71;100875.75;1084303;47;19974;-81
2023/09/04 00:19:37;;;;;;;;;;;;;;;18.96;66.07;100871.00;1085177;39;20151;-81
2023/09/04 00:20:38;;;;;;;;;;;;;;;18.95;65.72;100880.16;1084778;47;19950;-81
2023/09/04 00:21:41;;;;;;;;;;;;;;;18.83;66.60;100876.97;1085059;47;19946;-82
2023/09/04 00:22:44;;;;;;;;;;;;;;;18.86;66.17;100874.75;1085761;47;19950;-81
2023/09/04 00:23:48;;;;;;;;;;;;;;;18.87;66.02;100872.88;1084505;47;19955;-81
2023/09/04 00:24:49;;;;;;;;;;;;;;;18.78;66.89;100877.53;1084934;47;20542;-81
2023/09/04 00:25:49;;;;;;;;;;;;;;;18.67;67.47;100876.03;1084854;47;19950;-82
2023/09/04 00:26:54;;;;;;;;;;;;;;;18.70;66.90;100872.97;1084906;47;19958;-81
2023/09/04 00:27:55;;;;;;;;;;;;;;;18.74;66.69;100868.06;1084071;54;19973;-80
2023/09/04 00:28:58;;;;;;;;;;;;;;;18.75;66.72;100871.63;1084915;54;19951;-81
2023/09/04 00:29:58;;;;;;;;;;;;;;;18.76;66.56;100867.84;1085243;54;19950;-81
2023/09/04 00:31:03;;;;;;;;;;;;;;;18.76;66.49;100865.16;1085274;54;19975;-81
2023/09/04 00:32:05;;;;;;;;;;;;;;;18.66;66.93;100865.41;1085564;47;19957;-81
2023/09/04 00:33:09;;;;;;;;;;;;;;;18.63;67.15;100863.03;1086159;46;19953;-81
2023/09/04 00:34:10;;;;;;;;;;;;;;;18.66;66.69;100859.97;1086352;47;19950;-81
2023/09/04 00:35:14;;;;;;;;;;;;;;;18.65;66.50;100855.59;1087386;39;20412;-82
2023/09/04 00:36:14;;;;;;;;;;;;;;;18.68;66.46;100853.34;1086733;54;19953;-82
2023/09/04 00:37:20;;;;;;;;;;;;;;;18.67;66.67;100861.66;1087270;31;20734;-82
2023/09/04 00:38:24;;;;;;;;;;;;;;;18.73;66.35;100860.13;1086451;47;19947;-82
2023/09/04 00:39:27;;;;;;;;;;;;;;;18.75;66.63;100856.19;1086563;47;19950;-81
2023/09/04 00:40:28;;;;;;;;;;;;;;;18.74;66.42;100862.63;1085881;54;19967;-82
2023/09/04 00:41:31;;;;;;;;;;;;;;;18.76;66.52;100857.03;1086259;47;19943;-81
2023/09/04 00:42:33;;;;;;;;;;;;;;;18.78;66.31;100860.41;1086348;54;20517;-81
2023/09/04 00:43:37;;;;;;;;;;;;;;;18.71;66.48;100855.72;1086660;54;19955;-82
2023/09/04 00:44:38;;;;;;;;;;;;;;;18.73;66.23;100863.66;1088657;39;20238;-81
2023/09/04 00:45:45;;;;;;;;;;;;;;;18.76;66.46;100862.44;1086677;54;19969;-81
2023/09/04 00:46:45;;;;;;;;;;;;;;;18.78;66.24;100863.97;1086431;47;19946;-81
2023/09/04 00:47:53;;;;;;;;;;;;;;;18.79;65.94;100860.25;1086244;54;19967;-80
2023/09/04 00:48:54;;;;;;;;;;;;;;;18.80;65.96;100864.63;1086364;47;19974;-81
2023/09/04 00:49:55;;;;;;;;;;;;;;;18.79;66.28;100871.09;1085508;47;20427;-80
2023/09/04 00:50:58;;;;;;;;;;;;;;;18.78;66.10;100863.97;1085935;47;19974;-81
2023/09/04 00:51:59;;;;;;;;;;;;;;;18.80;66.12;100858.38;1085232;39;20687;-82
2023/09/04 00:53:05;;;;;;;;;;;;;;;18.67;67.14;100862.50;1084982;54;19950;-82
2023/09/04 00:54:08;;;;;;;;;;;;;;;18.70;66.60;100855.91;1086826;39;20364;-84
2023/09/04 00:55:12;;;;;;;;;;;;;;;18.68;66.92;100852.53;1084172;47;19950;-80
2023/09/04 00:56:13;;;;;;;;;;;;;;;18.66;66.53;100849.97;1084155;47;19947;-81
2023/09/04 00:57:17;;;;;;;;;;;;;;;18.68;66.71;100847.94;1085049;39;20519;-81
2023/09/04 00:58:18;;;;;;;;;;;;;;;18.53;67.54;100850.56;1084405;47;19974;-81
2023/09/04 00:59:21;;;;;;;;;;;;;;;18.42;67.91;100842.00;1084738;54;20536;-81
2023/09/04 01:00:25;;;;;;;;;;;;;;;18.37;68.59;100845.25;1083751;47;19947;-81
2023/09/04 01:01:28;;;;;;;;;;;;;;;18.26;69.25;100843.78;1084315;39;20438;-80
2023/09/04 01:02:29;;;;;;;;;;;;;;;18.19;69.21;100845.47;1083842;47;19947;-80
2023/09/04 01:03:30;;;;;;;;;;;;;;;18.29;68.49;100848.00;1083853;54;19950;-81
2023/09/04 01:04:33;;;;;;;;;;;;;;;18.29;68.61;100845.28;1084152;47;19947;-81
2023/09/04 01:05:34;;;;;;;;;;;;;;;18.29;68.86;100846.13;1085194;47;19946;-82
2023/09/04 01:06:38;;;;;;;;;;;;;;;18.24;69.24;100852.06;1084680;47;19951;-83
2023/09/04 01:07:40;;;;;;;;;;;;;;;18.24;68.54;100843.94;1084582;47;19946;-82
2023/09/04 01:08:44;;;;;;;;;;;;;;;18.31;67.89;100845.97;1085191;54;19999;-81
2023/09/04 01:09:47;;;;;;;;;;;;;;;18.33;67.89;100847.47;1085448;31;20497;-82
2023/09/04 01:10:53;;;;;;;;;;;;;;;18.39;67.81;100843.22;1083971;54;19969;-82
2023/09/04 01:11:56;;;;;;;;;;;;;;;18.29;68.66;100845.28;1084514;47;20451;-81
2023/09/04 01:13:04;;;;;;;;;;;;;;;18.24;68.67;100846.66;1084568;47;19975;-81
2023/09/04 01:14:09;;;;;;;;;;;;;;;18.20;69.15;100849.88;1084419;47;19970;-81
2023/09/04 01:15:14;;;;;;;;;;;;;;;18.20;68.97;100860.69;1084135;47;19953;-80
2023/09/04 01:16:16;;;;;;;;;;;;;;;18.15;69.30;100853.09;1083734;47;20018;-81
2023/09/04 01:17:20;;;;;;;;;;;;;;;18.18;69.20;100860.88;1084178;54;19957;-80
2023/09/04 01:18:22;;;;;;;;;;;;;;;18.24;68.61;100862.06;1084633;54;20038;-81
2023/09/04 01:19:26;;;;;;;;;;;;;;;18.24;68.74;100856.63;1084269;47;19962;-80
2023/09/04 01:20:30;;;;;;;;;;;;;;;18.29;68.66;100858.81;1084233;47;19950;-81
2023/09/04 01:21:37;;;;;;;;;;;;;;;18.25;68.92;100858.34;1084321;54;19950;-80
2023/09/04 01:22:38;;;;;;;;;;;;;;;18.29;68.52;100858.81;1084138;54;19950;-81
2023/09/04 01:23:41;;;;;;;;;;;;;;;18.31;68.40;100862.19;1085082;39;20374;-80
2023/09/04 01:24:42;;;;;;;;;;;;;;;18.32;68.43;100856.59;1084033;47;19950;-81
2023/09/04 01:25:47;;;;;;;;;;;;;;;18.27;68.40;100860.84;1083868;47;19951;-81
2023/09/04 01:26:51;;;;;;;;;;;;;;;18.26;68.72;100865.44;1084051;54;19947;-80
2023/09/04 01:27:55;;;;;;;;;;;;;;;18.13;68.99;100866.00;1083623;47;19946;-79
2023/09/04 01:29:02;;;;;;;;;;;;;;;18.12;69.08;100863.44;1083198;47;19953;-80
2023/09/04 01:30:08;;;;;;;;;;;;;;;18.11;69.34;100859.03;1082950;47;19965;-80
2023/09/04 01:31:14;;;;;;;;;;;;;;;18.15;68.67;100863.94;1083021;47;19982;-80
2023/09/04 01:32:20;;;;;;;;;;;;;;;18.18;68.32;100863.59;1083466;54;19991;-80
2023/09/04 01:33:25;;;;;;;;;;;;;;;18.19;68.75;100868.00;1085668;47;19958;-81
2023/09/04 01:34:29;;;;;;;;;;;;;;;18.17;68.71;100863.78;1085093;54;19957;-81
2023/09/04 01:35:34;;;;;;;;;;;;;;;18.18;68.49;100863.59;1085077;47;19947;-81
2023/09/04 01:36:37;;;;;;;;;;;;;;;18.18;68.01;100865.47;1085067;47;19975;-81
2023/09/04 01:37:38;;;;;;;;;;;;;;;18.20;68.17;100866.97;1083772;47;20442;-81
2023/09/04 01:38:39;;;;;;;;;;;;;;;18.26;68.22;100861.88;1084864;54;19962;-81
2023/09/04 01:39:43;;;;;;;;;;;;;;;18.24;68.01;100859.34;1084440;54;19951;-81
2023/09/04 01:40:44;;;;;;;;;;;;;;;18.25;68.04;100861.03;1084645;54;19982;-80
2023/09/04 01:41:47;;;;;;;;;;;;;;;18.24;68.15;100862.88;1083699;47;19990;-80
2023/09/04 01:42:47;;;;;;;;;;;;;;;18.27;67.67;100863.56;1084949;39;20633;-81
2023/09/04 01:43:51;;;;;;;;;;;;;;;18.26;67.73;100864.56;1083841;47;20022;-80
2023/09/04 01:44:51;;;;;;;;;;;;;;;18.29;67.62;100865.06;1084070;47;19947;-81
2023/09/04 01:45:54;;;;;;;;;;;;;;;18.28;67.38;100862.53;1084012;47;19946;-82
2023/09/04 01:46:55;;;;;;;;;;;;;;;18.12;68.01;100864.31;1083944;47;19971;-81
2023/09/04 01:47:58;;;;;;;;;;;;;;;18.03;67.96;100866.19;1084010;47;19950;-80
2023/09/04 01:48:59;;;;;;;;;;;;;;;18.03;68.15;100859.94;1083137;47;19946;-81
2023/09/04 01:50:02;;;;;;;;;;;;;;;17.99;68.31;100866.69;1083658;53;19962;-81
2023/09/04 01:51:05;;;;;;;;;;;;;;;17.88;68.61;100868.72;1083653;47;19986;-80
2023/09/04 01:52:09;;;;;;;;;;;;;;;17.89;68.28;100867.72;1084253;47;19971;-81
2023/09/04 01:53:10;;;;;;;;;;;;;;;17.96;68.52;100861.59;1083835;46;19950;-80
2023/09/04 01:54:13;;;;;;;;;;;;;;;18.03;68.43;100870.75;1083865;47;19950;-80
2023/09/04 01:55:14;;;;;;;;;;;;;;;18.01;68.81;100867.38;1084088;47;19950;-81
2023/09/04 01:56:17;;;;;;;;;;;;;;;18.04;68.25;100861.63;1084171;54;19951;-81
2023/09/04 01:57:18;;;;;;;;;;;;;;;18.07;68.23;100864.81;1084204;54;19962;-81
2023/09/04 01:58:21;;;;;;;;;;;;;;;18.07;68.44;100855.84;1084382;39;20387;-81
2023/09/04 01:59:22;;;;;;;;;;;;;;;18.06;68.53;100856.88;1084598;39;20357;-80
2023/09/04 02:00:25;;;;;;;;;;;;;;;18.06;68.53;100851.44;1084235;47;19954;-81
2023/09/04 02:01:26;;;;;;;;;;;;;;;18.07;68.60;100854.00;1084451;54;19946;-80
2023/09/04 02:02:29;;;;;;;;;;;;;;;18.07;68.63;100855.84;1083684;47;19951;-80
2023/09/04 02:03:30;;;;;;;;;;;;;;;18.02;68.53;100850.97;1082972;47;19950;-80
2023/09/04 02:04:34;;;;;;;;;;;;;;;17.92;69.42;100853.00;1082351;54;19974;-80
2023/09/04 02:05:37;;;;;;;;;;;;;;;17.83;69.61;100865.69;1083298;54;20857;-81
2023/09/04 02:06:42;;;;;;;;;;;;;;;17.81;70.01;100862.31;1083442;47;19946;-80
2023/09/04 02:07:43;;;;;;;;;;;;;;;17.71;69.85;100862.50;1084099;47;19946;-80
2023/09/04 02:08:47;;;;;;;;;;;;;;;17.62;70.48;100863.53;1083888;47;20430;-80
2023/09/04 02:09:47;;;;;;;;;;;;;;;17.60;70.91;100860.16;1082185;47;19947;-80
2023/09/04 02:10:50;;;;;;;;;;;;;;;17.60;70.78;100861.00;1082337;54;20474;-79
2023/09/04 02:11:51;;;;;;;;;;;;;;;17.62;70.85;100867.09;1082088;47;19951;-79
2023/09/04 02:12:52;;;;;;;;;;;;;;;17.59;70.80;100867.41;1081920;47;20533;-80
2023/09/04 02:13:55;;;;;;;;;;;;;;;17.58;70.76;100860.31;1081988;47;19946;-79
2023/09/04 02:14:56;;;;;;;;;;;;;;;17.53;70.46;100860.00;1081777;47;19950;-79
2023/09/04 02:15:59;;;;;;;;;;;;;;;17.49;70.93;100858.66;1081682;47;19957;-79
2023/09/04 02:17:00;;;;;;;;;;;;;;;17.43;71.31;100854.75;1080892;47;19950;-79
2023/09/04 02:18:02;;;;;;;;;;;;;;;17.47;70.57;100863.41;1081496;46;20093;-79
2023/09/04 02:19:05;;;;;;;;;;;;;;;17.45;70.87;100865.44;1082456;39;20375;-80
2023/09/04 02:20:06;;;;;;;;;;;;;;;17.44;71.04;100863.72;1082228;39;20489;-80
2023/09/04 02:21:10;;;;;;;;;;;;;;;17.47;70.62;100866.09;1081704;47;20461;-79
2023/09/04 02:22:13;;;;;;;;;;;;;;;17.52;70.46;100873.69;1081997;54;19950;-80
2023/09/04 02:23:16;;;;;;;;;;;;;;;17.53;70.21;100870.81;1081869;47;19947;-80
2023/09/04 02:24:17;;;;;;;;;;;;;;;17.50;70.26;100860.34;1082064;54;19946;-79
2023/09/04 02:25:17;;;;;;;;;;;;;;;17.48;70.39;100864.22;1081844;47;19997;-79
2023/09/04 02:26:20;;;;;;;;;;;;;;;17.44;70.74;100866.44;1081848;47;19981;-79
2023/09/04 02:27:21;;;;;;;;;;;;;;;17.44;70.96;100866.44;1081796;47;19947;-78
2023/09/04 02:28:24;;;;;;;;;;;;;;;17.44;70.68;100861.03;1081929;54;19998;-79
2023/09/04 02:29:25;;;;;;;;;;;;;;;17.38;70.91;100856.31;1082095;47;19974;-80
2023/09/04 02:30:28;;;;;;;;;;;;;;;17.37;70.80;100852.75;1082062;39;20406;-79
2023/09/04 02:31:29;;;;;;;;;;;;;;;17.35;71.06;100851.25;1081889;47;19947;-79
2023/09/04 02:32:32;;;;;;;;;;;;;;;17.37;70.94;100852.75;1082109;54;19998;-79
2023/09/04 02:33:33;;;;;;;;;;;;;;;17.44;70.26;100850.22;1082167;47;19950;-80
2023/09/04 02:34:36;;;;;;;;;;;;;;;17.33;70.78;100843.31;1082070;54;19962;-80
2023/09/04 02:35:36;;;;;;;;;;;;;;;17.21;70.98;100852.75;1081958;48;19971;-79
2023/09/04 02:36:40;;;;;;;;;;;;;;;17.23;71.17;100848.88;1082497;47;20585;-79
2023/09/04 02:37:43;;;;;;;;;;;;;;;17.25;70.90;100849.56;1083238;47;19947;-79
2023/09/04 02:38:47;;;;;;;;;;;;;;;17.22;71.42;100849.88;1082775;54;19995;-79
2023/09/04 02:39:47;;;;;;;;;;;;;;;17.16;71.24;100845.16;1081915;47;19951;-79
2023/09/04 02:40:50;;;;;;;;;;;;;;;17.14;71.48;100845.31;1082182;39;20089;-79
2023/09/04 02:41:51;;;;;;;;;;;;;;;17.16;71.28;100847.88;1082224;39;20386;-80
2023/09/04 02:42:54;;;;;;;;;;;;;;;17.12;71.55;100843.81;1082042;54;19959;-79
2023/09/04 02:43:55;;;;;;;;;;;;;;;17.15;71.30;100836.19;1082323;47;19951;-79
2023/09/04 02:44:58;;;;;;;;;;;;;;;17.19;70.94;100831.34;1082114;54;19958;-79
2023/09/04 02:45:59;;;;;;;;;;;;;;;17.28;70.51;100837.56;1082356;54;19950;-79
2023/09/04 02:47:02;;;;;;;;;;;;;;;17.22;70.66;100835.53;1082238;47;20552;-80
2023/09/04 02:48:03;;;;;;;;;;;;;;;17.17;70.98;100841.44;1082362;52;19947;-78
2023/09/04 02:49:06;;;;;;;;;;;;;;;17.22;70.60;100841.78;1082172;47;19946;-79
2023/09/04 02:50:08;;;;;;;;;;;;;;;17.11;70.91;100839.41;1082271;47;20066;-79
2023/09/04 02:51:11;;;;;;;;;;;;;;;17.18;71.08;100844.97;1081556;54;19954;-79
2023/09/04 02:52:11;;;;;;;;;;;;;;;17.16;70.93;100842.47;1081629;47;20032;-79
2023/09/04 02:53:17;;;;;;;;;;;;;;;17.07;71.17;100848.88;1083033;50;20006;-79
2023/09/04 02:54:18;;;;;;;;;;;;;;;17.14;71.27;100841.78;1086418;47;19949;-80
2023/09/04 02:55:21;;;;;;;;;;;;;;;17.08;71.11;100837.06;1086499;54;19939;-81
2023/09/04 02:56:22;;;;;;;;;;;;;;;17.06;71.19;100847.19;1086916;47;19951;-79
2023/09/04 02:57:22;;;;;;;;;;;;;;;17.01;71.64;100847.69;1086982;54;19939;-79
2023/09/04 02:58:26;;;;;;;;;;;;;;;17.06;71.48;100845.31;1087205;54;19946;-80
2023/09/04 02:59:26;;;;;;;;;;;;;;;17.08;71.10;100846.00;1083174;39;20377;-80
2023/09/04 03:00:30;;;;;;;;;;;;;;;17.05;71.41;100848.19;1081859;54;19966;-79
2023/09/04 03:01:30;;;;;;;;;;;;;;;16.97;71.48;100843.63;1081880;47;19946;-79
2023/09/04 03:02:35;;;;;;;;;;;;;;;17.00;71.39;100846.81;1081132;47;20034;-80
2023/09/04 03:03:36;;;;;;;;;;;;;;;16.96;71.69;100845.50;1081355;47;19950;-79
2023/09/04 03:04:37;;;;;;;;;;;;;;;16.95;71.46;100846.50;1081212;47;19950;-79
2023/09/04 03:05:40;;;;;;;;;;;;;;;16.94;71.67;100847.50;1081431;54;19953;-80
2023/09/04 03:06:41;;;;;;;;;;;;;;;16.91;71.94;100845.09;1082007;47;19950;-79
2023/09/04 03:07:44;;;;;;;;;;;;;;;16.97;71.80;100844.47;1081976;51;19947;-79
2023/09/04 03:08:47;;;;;;;;;;;;;;;16.96;71.84;100842.78;1081367;47;20597;-79
2023/09/04 03:09:52;;;;;;;;;;;;;;;17.05;71.40;100850.91;1081125;54;19971;-79
2023/09/04 03:10:56;;;;;;;;;;;;;;;17.11;70.84;100847.50;1081938;46;19947;-79
2023/09/04 03:11:56;;;;;;;;;;;;;;;17.08;71.22;100850.56;1081992;47;19946;-79
2023/09/04 03:12:59;;;;;;;;;;;;;;;17.04;71.09;100854.59;1083470;31;20410;-79
2023/09/04 03:14:00;;;;;;;;;;;;;;;17.03;71.35;100847.50;1082218;39;20362;-79
2023/09/04 03:15:06;;;;;;;;;;;;;;;16.98;71.45;100854.28;1081687;54;19994;-79
2023/09/04 03:16:07;;;;;;;;;;;;;;;16.88;71.86;100847.28;1081466;47;19950;-79
2023/09/04 03:17:10;;;;;;;;;;;;;;;16.90;71.32;100847.97;1081768;47;20037;-80
2023/09/04 03:18:11;;;;;;;;;;;;;;;16.94;71.71;100847.50;1081869;51;19970;-79
2023/09/04 03:19:14;;;;;;;;;;;;;;;17.01;71.28;100858.50;1081970;47;19967;-80
2023/09/04 03:20:19;;;;;;;;;;;;;;;16.99;71.22;100852.41;1082240;39;20346;-79
2023/09/04 03:21:22;;;;;;;;;;;;;;;16.82;71.60;100856.91;1081673;47;19954;-79
2023/09/04 03:22:24;;;;;;;;;;;;;;;16.76;72.03;100853.03;1081774;47;19950;-79
2023/09/04 03:23:27;;;;;;;;;;;;;;;16.75;72.32;100854.03;1081917;50;20201;-80
2023/09/04 03:24:30;;;;;;;;;;;;;;;16.76;72.11;100857.56;1081918;54;19946;-79
2023/09/04 03:25:35;;;;;;;;;;;;;;;16.73;72.24;100868.69;1081935;47;19950;-80
2023/09/04 03:26:36;;;;;;;;;;;;;;;16.67;72.43;100865.66;1081864;54;19950;-79
2023/09/04 03:27:39;;;;;;;;;;;;;;;16.61;72.70;100871.72;1081548;46;19951;-78
2023/09/04 03:28:40;;;;;;;;;;;;;;;16.58;72.82;100865.81;1081921;47;19986;-78
2023/09/04 03:29:43;;;;;;;;;;;;;;;16.67;72.40;100865.66;1081797;54;20002;-79
2023/09/04 03:30:44;;;;;;;;;;;;;;;16.61;72.94;100869.03;1082015;47;19974;-79
2023/09/04 03:31:47;;;;;;;;;;;;;;;16.60;73.08;100861.06;1081796;54;20013;-79
2023/09/04 03:32:49;;;;;;;;;;;;;;;16.51;73.34;100873.72;1081685;47;20041;-79
2023/09/04 03:33:53;;;;;;;;;;;;;;;16.53;73.19;100863.59;1081751;47;19953;-81
2023/09/04 03:34:54;;;;;;;;;;;;;;;16.54;73.06;100867.97;1081785;54;19946;-79
2023/09/04 03:35:59;;;;;;;;;;;;;;;16.60;73.23;100866.47;1081797;47;19947;-79
2023/09/04 03:36:59;;;;;;;;;;;;;;;16.60;73.09;100875.44;1081920;47;19950;-79
2023/09/04 03:38:03;;;;;;;;;;;;;;;16.54;72.94;100870.66;1081791;54;19963;-79
2023/09/04 03:39:06;;;;;;;;;;;;;;;16.51;73.14;100871.84;1081830;47;19947;-79
2023/09/04 03:40:22;;;;;;;;;;;;;;;16.39;73.93;100873.13;1081705;54;19946;-78
2023/09/04 03:41:22;;;;;;;;;;;;;;;16.35;74.05;100875.31;1081720;54;20477;-80
2023/09/04 03:42:26;;;;;;;;;;;;;;;16.38;73.83;100875.00;1081865;54;19982;-79
2023/09/04 03:43:28;;;;;;;;;;;;;;;16.22;74.51;100870.38;1082033;39;20378;-78
2023/09/04 03:44:32;;;;;;;;;;;;;;;16.24;74.68;100874.78;1081733;54;19954;-79
2023/09/04 03:45:33;;;;;;;;;;;;;;;16.31;74.10;100868.59;1081633;47;19987;-78
2023/09/04 03:46:36;;;;;;;;;;;;;;;16.30;73.99;100872.28;1081866;54;19950;-80
2023/09/04 03:47:36;;;;;;;;;;;;;;;16.25;74.60;100874.59;1082021;39;20613;-79
2023/09/04 03:48:40;;;;;;;;;;;;;;;16.20;74.66;100868.88;1081376;50;20061;-79
2023/09/04 03:49:40;;;;;;;;;;;;;;;16.12;75.31;100880.44;1081666;54;19947;-79
2023/09/04 03:50:43;;;;;;;;;;;;;;;16.13;75.11;100874.06;1081740;47;19958;-80
2023/09/04 03:51:44;;;;;;;;;;;;;;;16.17;75.19;100886.22;1081630;47;20793;-80
2023/09/04 03:52:47;;;;;;;;;;;;;;;16.16;75.22;100880.97;1081762;47;19973;-79
2023/09/04 03:53:48;;;;;;;;;;;;;;;16.15;75.44;100876.59;1081664;47;19951;-79
2023/09/04 03:54:48;;;;;;;;;;;;;;;16.18;75.18;100878.97;1081613;47;19959;-79
2023/09/04 03:55:54;;;;;;;;;;;;;;;16.19;74.88;100880.66;1081643;54;19954;-79
2023/09/04 03:56:55;;;;;;;;;;;;;;;16.18;74.94;100881.66;1081742;47;19974;-79
2023/09/04 03:57:58;;;;;;;;;;;;;;;16.11;75.45;100873.34;1081740;47;19994;-79
2023/09/04 03:58:59;;;;;;;;;;;;;;;16.11;75.72;100872.53;1081736;47;19953;-79
2023/09/04 03:59:59;;;;;;;;;;;;;;;16.18;75.23;100876.25;1081898;47;20062;-79
2023/09/04 04:01:03;;;;;;;;;;;;;;;16.25;74.95;100869.22;1081106;47;19989;-79
2023/09/04 04:02:04;;;;;;;;;;;;;;;16.28;74.71;100882.38;1081159;47;20446;-79
2023/09/04 04:03:07;;;;;;;;;;;;;;;16.20;74.94;100874.25;1081460;47;19947;-79
2023/09/04 04:04:09;;;;;;;;;;;;;;;16.15;75.47;100880.13;1081852;54;19946;-79
2023/09/04 04:05:13;;;;;;;;;;;;;;;16.23;74.77;100882.03;1081155;47;19953;-79
2023/09/04 04:06:14;;;;;;;;;;;;;;;16.26;74.63;100879.00;1081665;47;19947;-79
2023/09/04 04:07:17;;;;;;;;;;;;;;;16.25;74.57;100882.69;1082053;31;20561;-79
2023/09/04 04:08:17;;;;;;;;;;;;;;;16.26;74.38;100889.78;1080918;47;19970;-79
2023/09/04 04:09:21;;;;;;;;;;;;;;;16.29;74.46;100889.47;1081376;47;20764;-79
2023/09/04 04:10:22;;;;;;;;;;;;;;;16.29;74.71;100889.47;1081271;47;19947;-79
2023/09/04 04:11:28;;;;;;;;;;;;;;;16.33;74.28;100888.16;1081361;47;19951;-79
2023/09/04 04:12:28;;;;;;;;;;;;;;;16.33;74.39;100887.28;1081598;47;20524;-79
2023/09/04 04:13:31;;;;;;;;;;;;;;;16.35;74.14;100885.28;1081857;47;19958;-80
2023/09/04 04:14:32;;;;;;;;;;;;;;;16.35;74.35;100880.72;1082064;47;19950;-80
2023/09/04 04:15:38;;;;;;;;;;;;;;;16.37;73.82;100892.19;1081786;47;20023;-79
2023/09/04 04:16:39;;;;;;;;;;;;;;;16.41;73.79;100887.31;1081540;39;20597;-80
2023/09/04 04:17:42;;;;;;;;;;;;;;;16.47;73.37;100891.22;1081459;47;20488;-80
2023/09/04 04:18:43;;;;;;;;;;;;;;;16.42;74.22;100890.88;1081804;47;19947;-79
2023/09/04 04:19:47;;;;;;;;;;;;;;;16.35;73.71;100888.81;1081699;47;19946;-80
2023/09/04 04:20:48;;;;;;;;;;;;;;;16.33;74.17;100895.38;1082005;47;19981;-79
2023/09/04 04:21:51;;;;;;;;;;;;;;;16.33;74.07;100896.25;1081885;47;19951;-79
2023/09/04 04:22:52;;;;;;;;;;;;;;;16.33;74.46;100895.38;1081838;47;19946;-79
2023/09/04 04:23:55;;;;;;;;;;;;;;;16.21;74.16;100892.13;1081808;54;19967;-79
2023/09/04 04:24:55;;;;;;;;;;;;;;;16.06;74.98;100894.59;1081740;47;19946;-79
2023/09/04 04:25:59;;;;;;;;;;;;;;;16.02;75.26;100890.50;1082558;31;20465;-79
2023/09/04 04:27:02;;;;;;;;;;;;;;;15.95;75.70;100898.41;1081856;47;20521;-79
2023/09/04 04:28:05;;;;;;;;;;;;;;;15.97;75.38;100895.53;1082215;39;20662;-79
2023/09/04 04:29:06;;;;;;;;;;;;;;;15.91;75.82;100897.03;1081828;47;20537;-79
2023/09/04 04:30:11;;;;;;;;;;;;;;;15.97;75.69;100887.47;1081850;47;19950;-79
2023/09/04 04:31:12;;;;;;;;;;;;;;;16.10;74.97;100895.09;1081951;54;20073;-80
2023/09/04 04:32:16;;;;;;;;;;;;;;;16.06;75.27;100890.03;1081643;54;19950;-79
2023/09/04 04:33:16;;;;;;;;;;;;;;;16.09;74.94;100891.59;1082003;47;19974;-79
2023/09/04 04:34:20;;;;;;;;;;;;;;;16.14;74.96;100891.09;1081945;47;20014;-78
2023/09/04 04:35:20;;;;;;;;;;;;;;;16.19;74.49;100889.63;1082725;39;20397;-79
2023/09/04 04:36:24;;;;;;;;;;;;;;;16.19;74.55;100886.06;1082175;47;19998;-79
2023/09/04 04:37:25;;;;;;;;;;;;;;;16.19;74.17;100888.75;1081936;54;19958;-79
2023/09/04 04:38:28;;;;;;;;;;;;;;;16.12;74.71;100888.53;1081512;47;19951;-79
2023/09/04 04:39:28;;;;;;;;;;;;;;;16.02;74.86;100885.97;1081795;47;19971;-79
2023/09/04 04:40:31;;;;;;;;;;;;;;;16.03;74.98;100892.19;1081474;54;20001;-80
2023/09/04 04:41:33;;;;;;;;;;;;;;;16.11;75.04;100897.63;1082961;39;20378;-78
2023/09/04 04:42:39;;;;;;;;;;;;;;;16.09;74.57;100890.72;1081979;54;19957;-79
2023/09/04 04:43:39;;;;;;;;;;;;;;;16.14;74.74;100891.09;1080892;47;19951;-78
2023/09/04 04:44:40;;;;;;;;;;;;;;;16.01;74.95;100886.16;1081602;47;20038;-80
2023/09/04 04:45:43;;;;;;;;;;;;;;;16.01;74.94;100881.59;1081629;47;19953;-80
2023/09/04 04:46:45;;;;;;;;;;;;;;;15.93;75.46;100889.63;1081043;47;19978;-79
2023/09/04 04:47:49;;;;;;;;;;;;;;;15.93;75.43;100895.03;1080860;48;19957;-78
2023/09/04 04:48:49;;;;;;;;;;;;;;;15.86;75.71;100888.59;1081569;54;19947;-79
2023/09/04 04:49:52;;;;;;;;;;;;;;;15.88;75.96;100889.25;1080969;54;19975;-79
2023/09/04 04:50:53;;;;;;;;;;;;;;;15.89;76.05;100882.84;1081475;47;19970;-80
2023/09/04 04:51:56;;;;;;;;;;;;;;;15.98;75.48;100886.47;1081948;54;20002;-79
2023/09/04 04:52:57;;;;;;;;;;;;;;;16.03;75.18;100893.06;1081789;47;19947;-80
2023/09/04 04:54:00;;;;;;;;;;;;;;;16.09;74.87;100893.41;1081762;47;19994;-79
2023/09/04 04:55:01;;;;;;;;;;;;;;;16.13;74.30;100884.84;1081734;47;19947;-79
2023/09/04 04:56:04;;;;;;;;;;;;;;;16.14;74.68;100885.69;1081746;47;19954;-78
2023/09/04 04:57:05;;;;;;;;;;;;;;;16.16;74.16;100889.94;1081878;47;19950;-79
2023/09/04 04:58:10;;;;;;;;;;;;;;;16.16;74.70;100891.75;1081723;54;19950;-78
2023/09/04 04:59:11;;;;;;;;;;;;;;;16.11;74.72;100884.16;1081900;47;19974;-79
2023/09/04 05:00:12;;;;;;;;;;;;;;;16.05;74.79;100893.75;1082289;31;20589;-79
2023/09/04 05:01:15;;;;;;;;;;;;;;;15.98;75.18;100889.16;1081868;54;20041;-79
2023/09/04 05:02:17;;;;;;;;;;;;;;;15.89;75.39;100888.25;1081793;47;19950;-79
2023/09/04 05:03:20;;;;;;;;;;;;;;;15.84;75.67;100880.63;1081595;47;20514;-79
2023/09/04 05:04:20;;;;;;;;;;;;;;;15.84;75.59;100885.19;1081881;47;20833;-79
2023/09/04 05:05:24;;;;;;;;;;;;;;;15.87;75.81;100882.19;1081788;54;19955;-79
2023/09/04 05:06:24;;;;;;;;;;;;;;;15.92;75.66;100881.72;1081661;47;19970;-79
2023/09/04 05:07:28;;;;;;;;;;;;;;;15.90;75.22;100879.16;1081909;47;19947;-79
2023/09/04 05:08:29;;;;;;;;;;;;;;;15.90;75.63;100884.53;1082115;39;20408;-80
2023/09/04 05:09:32;;;;;;;;;;;;;;;15.89;75.47;100888.25;1081713;47;19954;-79
2023/09/04 05:10:32;;;;;;;;;;;;;;;15.89;75.83;100890.94;1081722;47;19970;-78
2023/09/04 05:11:36;;;;;;;;;;;;;;;15.91;75.70;100883.53;1081846;47;19962;-79
2023/09/04 05:12:36;;;;;;;;;;;;;;;15.93;75.16;100884.25;1082360;39;20361;-78
2023/09/04 05:13:42;;;;;;;;;;;;;;;15.86;75.38;100888.59;1081446;54;19954;-78
2023/09/04 05:14:43;;;;;;;;;;;;;;;15.73;76.38;100888.94;1081623;47;19947;-78
2023/09/04 05:15:46;;;;;;;;;;;;;;;15.73;76.25;100889.81;1081235;47;19994;-78
2023/09/04 05:16:47;;;;;;;;;;;;;;;15.70;76.17;100897.38;1081868;47;19954;-77
2023/09/04 05:17:50;;;;;;;;;;;;;;;15.77;76.25;100894.91;1081990;39;20702;-78
2023/09/04 05:18:50;;;;;;;;;;;;;;;15.83;75.88;100894.25;1081047;47;19946;-79
2023/09/04 05:19:53;;;;;;;;;;;;;;;15.85;75.91;100897.69;1081171;47;20001;-79
2023/09/04 05:20:54;;;;;;;;;;;;;;;15.89;75.49;100888.25;1081828;47;19970;-79